• Join FlightAware (Why Join?)
  • Login
  • US Flag 
01:28AM EDT


 

Airport Tracker/Info


-or-


 

Live Flight TrackerFlight Track Log ✈ GGN7283 ✈ 13-Aug-2013 ✈ KALB - CYYZ

Flight Track Log - Related Links

Times and Time Zones

All times are in EDT time to prevent confusion due to time zone crossing. See the GGN7283 flight status page for this flight to view local times or setup timezone preferences in your user account.

Time Position Orientation Groundspeed Altitude Reporting Facility
EDT Latitude Longitude Course Direction KTS MPH feet Rate Location/Type
05:19PM 42.7339 -73.8081 183° South 138 159 1,200  Level Boston Center
05:20PM 42.7006 -73.8103 183° South 147 169 2,600 1,920 Climbing Boston Center
05:21PM 42.6853 -73.8778 221° Southwest 171 197 5,500 1,980 Climbing Boston Center
05:23PM 42.7742 -73.9167 342° North 145 167 9,600 1,920 Climbing Boston Center
05:24PM 42.8261 -73.9319 348° North 164 189 11,400 1,980 Climbing Boston Center
05:25PM 42.8844 -73.9392 355° North 187 215 13,500 1,860 Climbing Boston Center
05:26PM 42.9344 -73.9489 352° North 201 231 15,200 1,680 Climbing Boston Center
05:27PM 42.9967 -73.9617 351° North 201 231 16,900 1,500 Climbing Boston Center
05:28PM 43.0550 -73.9744 351° North 201 231 18,300 1,200 Climbing Boston Center
05:29PM 43.1108 -73.9900 349° North 211 243 19,400 840 Climbing Boston Center
05:30PM 43.1756 -74.0003 353° North 222 255 20,000 300 Climbing Boston Center
05:31PM 43.2100 -74.0639 307° West 204 235 20,000  Level Boston Center
05:32PM 43.2025 -74.1492 263° West 176 203 20,000  Level Boston Center
05:33PM 43.2075 -74.2319 275° West 205 236 20,000  Level Boston Center
05:34PM 43.2061 -74.3144 269° West 222 255 20,000  Level Boston Center
05:35PM 43.2028 -74.3969 267° West 222 255 20,000  Level Boston Center
05:36PM 43.2033 -74.4794 271° West 222 255 20,000  Level Boston Center
05:37PM 43.2017 -74.5678 269° West 222 255 20,000  Level Boston Center
05:38PM 43.2000 -74.6503 268° West 222 255 20,000  Level Boston Center
05:39PM 43.1986 -74.7328 269° West 222 255 20,000  Level Boston Center
05:40PM 43.1967 -74.8183 268° West 222 255 20,000  Level Boston Center
05:41PM 43.1928 -74.9064 267° West 222 255 20,000  Level Boston Center
05:42PM 43.1931 -74.9919 270° West 227 261 20,000  Level Boston Center
05:43PM 43.1911 -75.0772 268° West 232 267 20,000  Level Boston Center
05:44PM 43.1892 -75.1625 268° West 232 267 20,000  Level Boston Center
05:45PM 43.1869 -75.2481 268° West 232 267 20,000  Level Boston Center
05:46PM 43.1847 -75.3333 268° West 232 267 20,000  Level Boston Center
05:47PM 43.1847 -75.4186 270° West 232 267 20,000  Level Boston Center
05:48PM 43.1803 -75.5125 266° West 232 267 20,000  Level Boston Center
05:49PM 43.1778 -75.5978 268° West 232 267 20,000  Level Boston Center
05:50PM 43.1753 -75.6861 268° West 232 267 20,000  Level Boston Center
05:51PM 43.1753 -75.7658 270° West 232 267 20,000  Level Boston Center
05:52PM 43.1725 -75.8511 267° West 232 267 20,000  Level Boston Center
05:53PM 43.1700 -75.9364 268° West 232 267 20,000  Level Boston Center
05:56PM 43.1619 -76.1197 267° West 220 253 20,000  Level Cleveland Center
05:57PM 43.1608 -76.2025 269° West 220 253 20,000  Level Cleveland Center
05:58PM 43.1558 -76.2853 265° West 220 253 20,000  Level Cleveland Center
05:59PM 43.1464 -76.3714 261° West 220 253 20,000  Level Cleveland Center
06:00PM 43.1411 -76.4544 265° West 220 253 20,000  Level Cleveland Center
06:01PM 43.1336 -76.5403 263° West 220 253 20,000  Level Cleveland Center
06:02PM 43.1239 -76.6233 261° West 220 253 20,000  Level Cleveland Center
06:03PM 43.1186 -76.7064 265° West 220 253 20,000  Level Cleveland Center
06:04PM 43.1086 -76.7864 260° West 220 253 20,000  Level Cleveland Center
06:05PM 43.1031 -76.8694 265° West 220 253 20,000  Level Cleveland Center
06:06PM 43.0953 -76.9522 263° West 220 253 20,000  Level Cleveland Center
06:07PM 43.0872 -77.0353 262° West 220 253 20,000  Level Cleveland Center
06:08PM 43.0814 -77.1181 265° West 220 253 20,000 -120 Level Cleveland Center
06:09PM 43.0714 -77.2011 261° West 220 253 19,800 -480 Descending Cleveland Center
06:10PM 43.0636 -77.2894 263° West 225 259 19,100 -1,200 Descending Cleveland Center
06:11PM 43.0578 -77.3750 265° West 230 265 17,500 -1,620 Descending Cleveland Center
06:12PM 43.0475 -77.4636 261° West 235 270 15,900 -1,560 Descending Cleveland Center
06:13PM 43.0481 -77.5547 271° West 235 270 14,400 -720 Descending Cleveland Center
06:15PM 43.0667 -77.7167 279° West 250 288 13,900 -180 Descending Toronto Center
06:16PM 43.0833 -77.8000 285° West 240 276 13,900  Level Toronto Center
06:17PM 43.1000 -77.9000 283° West 240 276 13,900  Level Toronto Center
06:18PM 43.1000 -77.9833 270° West 240 276 14,000  Climbing Toronto Center
06:19PM 43.1167 -78.0833 283° West 240 276 14,000 -60 Level Toronto Center
06:20PM 43.1483 -78.1931 292° West 240 276 13,900 -60 Descending Cleveland Center
06:21PM 43.1583 -78.2808 279° West 240 276 13,900  Level Cleveland Center
06:22PM 43.1725 -78.3686 283° West 240 276 13,900  Level Cleveland Center
06:23PM 43.1847 -78.4564 281° West 235 270 13,900  Level Cleveland Center
06:24PM 43.1944 -78.5414 279° West 235 270 13,900  Level Cleveland Center
06:25PM 43.2067 -78.6322 280° West 235 270 13,900  Level Cleveland Center
06:26PM 43.2183 -78.7203 280° West 235 270 13,900 -60 Level Cleveland Center
06:27PM 43.2322 -78.8022 283° West 235 270 13,800 -960 Descending Cleveland Center
06:29PM 43.2500 -78.9500 279° West 260 299 11,300 -1,440 Descending Toronto Center
06:30PM 43.2667 -79.0667 281° West 250 288 9,700 -1,140 Descending Toronto Center
06:31PM 43.2667 -79.1333 270° West 240 276 9,100 -360 Descending Toronto Center
06:32PM 43.2833 -79.2167 285° West 230 265 9,000 -60 Descending Toronto Center
06:33PM 43.2833 -79.3167 270° West 230 265 9,000 -120 Level Toronto Center
06:34PM 43.3333 -79.3833 316° Northwest 230 265 8,800 -540 Descending Toronto Center
06:35PM 43.4000 -79.4000 350° North 250 288 8,000 -420 Descending Toronto Center
06:36PM 43.4667 -79.4500 331° Northwest 250 288 8,000  Level Toronto Center
06:37PM 43.5333 -79.4500 360° North 240 276 8,000 -360 Level Toronto Center
06:38PM 43.6000 -79.4500 360° North 240 276 7,300 -1,380 Descending Toronto Center
06:39PM 43.6500 -79.4000 36° Northeast 230 265 5,300 -1,920 Descending Toronto Center
06:40PM 43.7000 -79.4333 334° Northwest 200 230 3,500 -1,140 Descending Toronto Center
06:41PM 43.7333 -79.4667 324° Northwest 170 196 3,100 -780 Descending Toronto Center
06:42PM 43.7167 -79.5167 245° Southwest 140 161 2,000 -960 Descending Toronto Center
06:43PM 43.6833 -79.5333 200° South 140 161 1,200 -660 Descending Toronto Center
06:44PM 43.6667 -79.5833 245° Southwest 130 150 700 -540 Descending Toronto Center